Time;durP1;ratioP1;P1;durP2;ratioP2;P2;SDS_P1;SDS_P2;PMS_P1;PMS_P2;Temp;Humidity;BMP_temperature;BMP_pressure;BME280_temperature;BME280_humidity;BME280_pressure;Samples;Min_cycle;Max_cycle;Signal;HPM_P1;HPM_P2
2024/01/08 00:00:50;;;;;;;11.10;8.70;;;-7.10;99.90;;;;;;5052486;28;20450;-56
2024/01/08 00:03:17;;;;;;;11.10;7.93;;;-7.10;99.90;;;;;;5050058;28;20532;-57
2024/01/08 00:05:44;;;;;;;11.27;7.97;;;-7.10;99.90;;;;;;5046343;28;20499;-56
2024/01/08 00:08:11;;;;;;;10.67;8.33;;;-7.20;99.90;;;;;;5047725;28;20519;-56
2024/01/08 00:10:38;;;;;;;10.00;8.37;;;-7.20;99.90;;;;;;5045079;28;20508;-57
2024/01/08 00:13:06;;;;;;;10.93;8.37;;;-7.10;99.90;;;;;;5047666;28;20490;-56
2024/01/08 00:15:32;;;;;;;10.10;7.90;;;-7.20;99.90;;;;;;5048800;28;20462;-56
2024/01/08 00:17:59;;;;;;;9.27;7.33;;;-7.20;99.90;;;;;;5049778;28;20523;-55
2024/01/08 00:20:26;;;;;;;10.50;8.10;;;-7.20;99.90;;;;;;5047096;28;20874;-56
2024/01/08 00:22:52;;;;;;;12.97;8.40;;;-7.20;99.90;;;;;;5049292;28;20473;-56
2024/01/08 00:25:21;;;;;;;10.80;8.00;;;-7.30;99.90;;;;;;5048149;28;20484;-56
2024/01/08 00:27:48;;;;;;;7.80;6.83;;;-7.30;99.90;;;;;;5051285;28;20461;-56
2024/01/08 00:30:17;;;;;;;9.17;7.70;;;-7.30;99.90;;;;;;5048982;28;20461;-56
2024/01/08 00:32:43;;;;;;;11.27;8.10;;;-7.30;99.90;;;;;;5051136;28;20490;-55
2024/01/08 00:35:10;;;;;;;10.20;7.90;;;-7.30;99.90;;;;;;5051685;28;21172;-56
2024/01/08 00:37:38;;;;;;;9.90;7.67;;;-7.40;99.90;;;;;;5050115;28;20880;-56
2024/01/08 00:40:06;;;;;;;10.90;8.90;;;-7.40;99.90;;;;;;5047223;28;20488;-56
2024/01/08 00:42:32;;;;;;;9.63;7.70;;;-7.40;99.90;;;;;;5050071;28;21041;-57
2024/01/08 00:44:59;;;;;;;8.47;7.57;;;-7.40;99.90;;;;;;5045212;28;20462;-56
2024/01/08 00:47:27;;;;;;;10.50;7.90;;;-7.40;99.90;;;;;;5045952;28;20821;-53
2024/01/08 00:49:54;;;;;;;9.80;7.10;;;-7.40;99.90;;;;;;5050697;28;20790;-54
2024/01/08 00:52:20;;;;;;;9.33;6.30;;;-7.40;99.90;;;;;;5050563;28;20917;-53
2024/01/08 00:54:47;;;;;;;9.93;8.10;;;-7.50;99.90;;;;;;5045475;28;20519;-53
2024/01/08 00:57:14;;;;;;;8.53;7.60;;;-7.50;99.90;;;;;;5045082;28;20446;-53
2024/01/08 00:59:40;;;;;;;9.60;7.97;;;-7.40;99.90;;;;;;5043301;28;20955;-53
2024/01/08 01:02:07;;;;;;;9.30;8.40;;;-7.50;99.90;;;;;;5054468;28;20527;-53
2024/01/08 01:04:35;;;;;;;8.13;7.23;;;-7.50;99.90;;;;;;5054702;28;20446;-53
2024/01/08 01:07:02;;;;;;;8.50;7.47;;;-7.50;99.90;;;;;;5053851;28;20820;-54
2024/01/08 01:09:28;;;;;;;11.33;8.03;;;-7.50;99.90;;;;;;5046541;28;20458;-52
2024/01/08 01:11:56;;;;;;;9.60;8.10;;;-7.50;99.90;;;;;;5047429;28;20485;-52
2024/01/08 01:14:22;;;;;;;10.13;7.93;;;-7.50;99.90;;;;;;5047657;28;20974;-53
2024/01/08 01:16:49;;;;;;;12.70;9.03;;;-7.50;99.90;;;;;;5048983;28;21053;-53
2024/01/08 01:19:16;;;;;;;10.83;8.00;;;-7.50;99.90;;;;;;5052870;28;20832;-53
2024/01/08 01:21:44;;;;;;;8.97;8.03;;;-7.50;99.90;;;;;;5058754;28;20507;-52
2024/01/08 01:24:10;;;;;;;10.03;8.33;;;-7.50;99.90;;;;;;5057801;28;20441;-52
2024/01/08 01:26:37;;;;;;;10.60;8.87;;;-7.50;99.90;;;;;;5055668;28;20928;-53
2024/01/08 01:29:03;;;;;;;10.90;8.90;;;-7.50;99.90;;;;;;5049090;28;21055;-52
2024/01/08 01:31:31;;;;;;;14.10;8.30;;;-7.60;99.90;;;;;;5058306;28;20506;-53
2024/01/08 01:33:57;;;;;;;12.00;8.60;;;-7.60;99.90;;;;;;5051208;28;20477;-53
2024/01/08 01:36:24;;;;;;;9.37;8.27;;;-7.60;99.90;;;;;;5058912;28;20478;-53
2024/01/08 01:38:52;;;;;;;13.37;9.03;;;-7.60;99.90;;;;;;5057579;28;20950;-53
2024/01/08 01:41:18;;;;;;;9.10;7.20;;;-7.70;99.90;;;;;;5052445;28;20485;-53
2024/01/08 01:43:45;;;;;;;10.73;8.57;;;-7.60;99.90;;;;;;5058753;28;20455;-53
2024/01/08 01:46:22;;;;;;;11.60;8.80;;;-7.60;99.90;;;;;;5053759;28;20947;-53
2024/01/08 01:48:49;;;;;;;10.00;8.60;;;-7.70;99.90;;;;;;5053354;28;20453;-54
2024/01/08 01:51:16;;;;;;;9.50;8.23;;;-7.70;99.90;;;;;;5054061;28;20519;-54
2024/01/08 01:53:43;;;;;;;12.27;8.70;;;-7.70;99.90;;;;;;5054275;28;20546;-52
2024/01/08 01:56:11;;;;;;;10.30;8.50;;;-7.60;99.90;;;;;;5047970;28;20493;-53
2024/01/08 01:58:38;;;;;;;10.90;8.67;;;-7.70;99.90;;;;;;5042631;28;20469;-53
2024/01/08 02:01:05;;;;;;;8.73;7.93;;;-7.70;99.90;;;;;;5052076;28;20462;-53
2024/01/08 02:03:32;;;;;;;10.87;7.87;;;-7.70;99.90;;;;;;5053202;28;20478;-53
2024/01/08 02:05:59;;;;;;;11.20;8.37;;;-7.70;99.90;;;;;;5053084;28;20489;-53
2024/01/08 02:08:26;;;;;;;9.90;7.97;;;-7.70;99.90;;;;;;5051615;28;20857;-52
2024/01/08 02:10:53;;;;;;;11.77;8.40;;;-7.80;99.90;;;;;;5050741;28;20469;-53
2024/01/08 02:13:21;;;;;;;9.87;8.57;;;-7.70;99.90;;;;;;5060480;28;20488;-53
2024/01/08 02:15:47;;;;;;;11.33;8.23;;;-7.80;99.90;;;;;;5060364;28;20939;-53
2024/01/08 02:18:14;;;;;;;12.40;8.50;;;-7.70;99.90;;;;;;5052094;28;20465;-53
2024/01/08 02:20:41;;;;;;;16.70;11.47;;;-7.80;99.90;;;;;;5052611;28;20528;-53
2024/01/08 02:23:08;;;;;;;27.50;13.80;;;-7.80;99.90;;;;;;5046822;28;21768;-53
2024/01/08 02:25:36;;;;;;;25.40;13.37;;;-7.70;99.90;;;;;;5080748;22;20517;-53
2024/01/08 02:28:03;;;;;;;13.80;9.97;;;-7.70;99.90;;;;;;5066481;28;20484;-53
2024/01/08 02:30:29;;;;;;;14.80;9.70;;;-7.60;99.90;;;;;;5063557;28;20470;-53
2024/01/08 02:32:56;;;;;;;17.00;11.17;;;-7.60;99.90;;;;;;5064670;28;20993;-53
2024/01/08 02:35:22;;;;;;;27.40;15.40;;;-7.60;99.90;;;;;;5076592;28;20538;-53
2024/01/08 02:37:49;;;;;;;19.37;12.93;;;-7.60;99.90;;;;;;5082134;28;20545;-54
2024/01/08 02:40:18;;;;;;;12.43;9.43;;;-7.60;99.90;;;;;;5076797;28;20518;-53
2024/01/08 02:42:45;;;;;;;12.70;10.00;;;-7.60;99.90;;;;;;5085057;28;20460;-53
2024/01/08 02:45:11;;;;;;;12.47;9.27;;;-7.60;99.90;;;;;;5081832;28;20485;-53
2024/01/08 02:47:40;;;;;;;9.80;8.10;;;-7.70;99.90;;;;;;5082514;28;20518;-54
2024/01/08 02:50:08;;;;;;;11.33;9.73;;;-7.70;99.90;;;;;;5085229;28;20487;-53
2024/01/08 02:52:34;;;;;;;8.20;7.33;;;-7.60;99.90;;;;;;5083385;28;20522;-53
2024/01/08 02:55:02;;;;;;;10.03;7.53;;;-7.60;99.90;;;;;;5082499;28;20856;-54
2024/01/08 02:57:30;;;;;;;9.20;7.97;;;-7.70;99.90;;;;;;5085645;28;20548;-52
2024/01/08 02:59:57;;;;;;;8.20;7.30;;;-7.60;99.90;;;;;;5089698;28;20513;-53
2024/01/08 03:02:25;;;;;;;9.03;7.23;;;-7.60;99.90;;;;;;5088427;28;20460;-52
2024/01/08 03:04:52;;;;;;;7.30;6.57;;;-7.50;99.90;;;;;;5087092;28;21088;-53
2024/01/08 03:07:20;;;;;;;7.93;7.23;;;-7.50;99.90;;;;;;5085223;28;20453;-53
2024/01/08 03:09:47;;;;;;;9.20;8.10;;;-7.50;99.90;;;;;;5085744;28;20813;-53
2024/01/08 03:12:13;;;;;;;10.37;8.20;;;-7.50;99.90;;;;;;5077152;28;20464;-53
2024/01/08 03:14:43;;;;;;;9.33;6.93;;;-7.50;99.90;;;;;;5085408;28;20533;-53
2024/01/08 03:17:10;;;;;;;8.40;7.50;;;-7.50;99.90;;;;;;5082183;28;21010;-53
2024/01/08 03:19:37;;;;;;;8.70;7.47;;;-7.50;99.90;;;;;;5088122;28;20957;-52
2024/01/08 03:22:04;;;;;;;9.60;7.30;;;-7.40;99.90;;;;;;5082231;28;20899;-53
2024/01/08 03:24:31;;;;;;;7.37;6.57;;;-7.40;99.90;;;;;;5082084;28;20458;-54
2024/01/08 03:26:57;;;;;;;8.27;6.83;;;-7.40;99.90;;;;;;5089650;28;20455;-54
2024/01/08 03:29:24;;;;;;;10.60;7.10;;;-7.40;99.90;;;;;;5086029;28;20469;-52
2024/01/08 03:31:52;;;;;;;10.27;8.13;;;-7.40;99.90;;;;;;5090235;28;20552;-52
2024/01/08 03:34:19;;;;;;;7.97;6.53;;;-7.40;99.90;;;;;;5082644;28;20526;-53
2024/01/08 03:36:46;;;;;;;8.00;7.20;;;-7.40;99.90;;;;;;5081270;28;20522;-54
2024/01/08 03:39:13;;;;;;;7.80;7.00;;;-7.40;99.90;;;;;;5082133;28;20461;-53
2024/01/08 03:41:40;;;;;;;15.13;7.53;;;-7.40;99.90;;;;;;5081063;28;20464;-54
2024/01/08 03:44:07;;;;;;;8.23;7.43;;;-7.40;99.90;;;;;;5085356;28;20809;-53
2024/01/08 03:46:33;;;;;;;7.97;7.17;;;-7.30;99.90;;;;;;5089408;28;20484;-53
2024/01/08 03:49:02;;;;;;;7.63;6.50;;;-7.40;99.90;;;;;;5089189;28;20462;-54
2024/01/08 03:51:28;;;;;;;11.30;6.90;;;-7.40;99.90;;;;;;5087684;28;20965;-54
2024/01/08 03:53:55;;;;;;;8.30;7.10;;;-7.40;99.90;;;;;;5085781;28;20533;-54
2024/01/08 03:56:21;;;;;;;7.30;6.60;;;-7.40;99.90;;;;;;5089306;28;20574;-53
2024/01/08 03:58:48;;;;;;;8.00;7.03;;;-7.30;99.90;;;;;;5088322;28;20467;-53
2024/01/08 04:01:15;;;;;;;14.60;7.20;;;-7.40;99.90;;;;;;5087276;28;20456;-53
2024/01/08 04:03:42;;;;;;;8.80;7.30;;;-7.40;99.90;;;;;;5091063;28;20455;-54
2024/01/08 04:06:10;;;;;;;7.13;5.83;;;-7.40;99.90;;;;;;5085713;28;21081;-53
2024/01/08 04:08:37;;;;;;;9.60;7.30;;;-7.40;99.90;;;;;;5088508;28;20465;-53
2024/01/08 04:11:03;;;;;;;8.80;7.70;;;-7.40;99.90;;;;;;5085805;28;20938;-53
2024/01/08 04:13:31;;;;;;;10.87;7.07;;;-7.40;99.90;;;;;;5089905;28;20483;-53
2024/01/08 04:15:57;;;;;;;8.77;7.03;;;-7.40;99.90;;;;;;5086499;28;20483;-53
2024/01/08 04:18:24;;;;;;;17.23;7.30;;;-7.40;99.90;;;;;;5081370;28;20456;-52
2024/01/08 04:20:50;;;;;;;9.50;7.23;;;-7.40;99.90;;;;;;5089936;28;20468;-53
2024/01/08 04:23:18;;;;;;;9.37;7.30;;;-7.40;99.90;;;;;;5088354;28;20559;-54
2024/01/08 04:25:45;;;;;;;8.87;7.07;;;-7.40;99.90;;;;;;5084731;28;20918;-53
2024/01/08 04:28:11;;;;;;;9.70;7.50;;;-7.40;99.90;;;;;;5076331;28;20514;-53
2024/01/08 04:30:38;;;;;;;8.80;7.03;;;-7.40;99.90;;;;;;5083699;28;20467;-53
2024/01/08 04:33:05;;;;;;;11.33;8.53;;;-7.40;99.90;;;;;;5092065;28;20444;-54
2024/01/08 04:35:31;;;;;;;7.97;7.03;;;-7.40;99.90;;;;;;5087310;28;20480;-54
2024/01/08 04:37:58;;;;;;;10.20;7.60;;;-7.50;99.90;;;;;;5088816;28;20456;-53
2024/01/08 04:40:26;;;;;;;9.37;7.93;;;-7.50;99.90;;;;;;5093231;28;20460;-53
2024/01/08 04:42:52;;;;;;;6.97;6.27;;;-7.50;99.90;;;;;;5093239;28;20968;-54
2024/01/08 04:45:19;;;;;;;8.07;7.27;;;-7.50;99.90;;;;;;5089097;28;20591;-53
2024/01/08 04:47:45;;;;;;;10.67;7.97;;;-7.50;99.90;;;;;;5086453;28;20508;-53
2024/01/08 04:50:12;;;;;;;9.87;7.60;;;-7.50;99.90;;;;;;5092833;28;20455;-53
2024/01/08 04:52:39;;;;;;;10.50;7.93;;;-7.50;99.90;;;;;;5094705;28;20448;-53
2024/01/08 04:55:06;;;;;;;8.87;7.10;;;-7.50;99.90;;;;;;5094684;28;20483;-53
2024/01/08 04:57:34;;;;;;;9.90;7.90;;;-7.50;99.90;;;;;;5089631;28;20440;-53
2024/01/08 05:00:00;;;;;;;8.60;7.37;;;-7.50;99.90;;;;;;5085677;28;20457;-53
2024/01/08 05:02:27;;;;;;;7.63;6.83;;;-7.60;99.90;;;;;;5084721;28;20468;-54
2024/01/08 05:04:54;;;;;;;10.53;8.10;;;-7.50;99.90;;;;;;5086371;28;20485;-53
2024/01/08 05:07:20;;;;;;;8.97;7.87;;;-7.50;99.90;;;;;;5089175;28;20600;-52
2024/01/08 05:09:47;;;;;;;10.70;8.63;;;-7.50;99.90;;;;;;5093401;28;20526;-53
2024/01/08 05:12:14;;;;;;;10.63;8.03;;;-7.60;99.90;;;;;;5091932;28;20535;-54
2024/01/08 05:14:42;;;;;;;9.60;7.30;;;-7.60;99.90;;;;;;5085484;28;21038;-53
2024/01/08 05:17:08;;;;;;;8.87;7.27;;;-7.60;99.90;;;;;;5081594;28;20826;-53
2024/01/08 05:19:35;;;;;;;8.17;7.03;;;-7.60;99.90;;;;;;5085964;28;20460;-55
2024/01/08 05:22:01;;;;;;;11.40;7.57;;;-7.60;99.90;;;;;;5082127;28;20451;-53
2024/01/08 05:24:28;;;;;;;8.40;7.47;;;-7.60;99.90;;;;;;5089329;28;20949;-53
2024/01/08 05:26:54;;;;;;;9.87;7.90;;;-7.60;99.90;;;;;;5082838;28;20467;-54
2024/01/08 05:29:21;;;;;;;9.07;7.50;;;-7.60;99.90;;;;;;5085552;28;20513;-53
2024/01/08 05:31:49;;;;;;;12.57;7.70;;;-7.70;99.90;;;;;;5090410;28;20510;-53
2024/01/08 05:34:15;;;;;;;8.27;7.33;;;-7.70;99.90;;;;;;5087157;28;20480;-54
2024/01/08 05:36:42;;;;;;;11.17;8.13;;;-7.80;99.90;;;;;;5091938;28;20813;-54
2024/01/08 05:39:09;;;;;;;8.90;7.47;;;-7.80;99.90;;;;;;5090998;28;20458;-54
2024/01/08 05:41:40;;;;;;;8.47;7.03;;;-7.70;99.90;;;;;;5090058;28;20460;-54
2024/01/08 05:44:06;;;;;;;12.40;9.40;;;-7.80;99.90;;;;;;5087086;28;20490;-54
2024/01/08 05:46:33;;;;;;;9.23;8.00;;;-7.80;99.90;;;;;;5093476;28;20461;-54
2024/01/08 05:49:01;;;;;;;12.10;7.37;;;-7.80;99.90;;;;;;5083427;28;20449;-53
2024/01/08 05:51:28;;;;;;;9.80;7.20;;;-7.80;99.90;;;;;;5087504;28;20440;-53
2024/01/08 05:53:55;;;;;;;9.27;7.60;;;-7.80;99.90;;;;;;5084248;28;20989;-54
2024/01/08 05:56:21;;;;;;;14.60;11.03;;;-7.80;99.90;;;;;;5089319;28;20473;-53
2024/01/08 05:58:48;;;;;;;13.50;9.37;;;-7.80;99.90;;;;;;5083705;28;20456;-54
2024/01/08 06:01:15;;;;;;;17.30;11.67;;;-7.80;99.90;;;;;;5091827;28;20444;-53
2024/01/08 06:03:41;;;;;;;22.93;12.77;;;-7.80;99.90;;;;;;5086537;28;20456;-54
2024/01/08 06:06:12;;;;;;;17.63;10.73;;;-7.80;99.90;;;;;;5084860;28;20464;-54
2024/01/08 06:08:40;;;;;;;15.03;11.03;;;-7.80;99.90;;;;;;5084676;28;20443;-51
2024/01/08 06:11:07;;;;;;;10.80;8.90;;;-7.80;99.90;;;;;;5089114;28;20450;-53
2024/01/08 06:13:33;;;;;;;12.10;9.23;;;-7.80;99.90;;;;;;5090072;28;20452;-54
2024/01/08 06:16:00;;;;;;;10.90;8.77;;;-7.80;99.90;;;;;;5088767;28;20468;-53
2024/01/08 06:18:27;;;;;;;10.83;8.13;;;-7.80;99.90;;;;;;5076501;28;20460;-53
2024/01/08 06:20:53;;;;;;;9.50;8.33;;;-7.80;99.90;;;;;;5082441;28;20463;-53
2024/01/08 06:23:21;;;;;;;11.43;8.60;;;-7.80;99.90;;;;;;5086428;28;20463;-53
2024/01/08 06:25:48;;;;;;;14.63;12.90;;;-7.80;99.90;;;;;;5085697;28;20535;-52
2024/01/08 06:28:14;;;;;;;10.70;9.60;;;-7.80;99.90;;;;;;5085687;28;20448;-53
2024/01/08 06:30:42;;;;;;;10.77;8.33;;;-7.80;99.90;;;;;;5083146;28;21006;-55
2024/01/08 06:33:10;;;;;;;10.07;8.97;;;-7.80;99.90;;;;;;5081318;28;20534;-53
2024/01/08 06:35:36;;;;;;;11.13;9.40;;;-7.90;99.90;;;;;;5084333;28;20488;-55
2024/01/08 06:38:03;;;;;;;10.60;8.57;;;-7.90;99.90;;;;;;5089465;28;20467;-52
2024/01/08 06:40:31;;;;;;;10.17;8.03;;;-7.80;99.90;;;;;;5080778;28;20560;-53
2024/01/08 06:42:58;;;;;;;8.37;7.40;;;-7.90;99.90;;;;;;5081829;28;20460;-54
2024/01/08 06:45:24;;;;;;;9.30;8.30;;;-7.90;99.90;;;;;;5086142;28;20473;-55
2024/01/08 06:47:51;;;;;;;9.37;8.37;;;-7.80;99.20;;;;;;5084217;28;20529;-53
2024/01/08 06:50:18;;;;;;;10.57;8.53;;;-7.80;99.90;;;;;;5086138;28;20468;-53
2024/01/08 06:52:44;;;;;;;13.80;9.07;;;-7.80;99.90;;;;;;5087695;28;20467;-55
2024/01/08 06:55:12;;;;;;;10.80;9.03;;;-7.80;99.90;;;;;;5086885;28;20585;-53
2024/01/08 06:57:40;;;;;;;9.83;8.83;;;-7.80;99.90;;;;;;5079019;28;20827;-54
2024/01/08 07:00:08;;;;;;;10.10;8.77;;;-7.80;99.20;;;;;;5081242;28;20461;-54
2024/01/08 07:02:35;;;;;;;10.67;8.47;;;-7.90;99.50;;;;;;5084048;28;20460;-53
2024/01/08 07:05:01;;;;;;;10.43;8.50;;;-7.90;96.40;;;;;;5081671;28;20480;-53
2024/01/08 07:07:28;;;;;;;12.67;7.73;;;-7.90;93.90;;;;;;5076605;28;20844;-53
2024/01/08 07:09:55;;;;;;;10.63;8.30;;;-7.80;92.40;;;;;;5085545;28;20455;-53
2024/01/08 07:12:21;;;;;;;9.10;7.80;;;-7.80;91.80;;;;;;5081219;28;21185;-54
2024/01/08 07:14:49;;;;;;;10.47;8.13;;;-7.80;91.80;;;;;;5077665;28;20554;-53
2024/01/08 07:17:16;;;;;;;9.10;8.20;;;-7.80;93.10;;;;;;5079679;28;20460;-54
2024/01/08 07:19:43;;;;;;;9.37;8.43;;;-7.80;94.50;;;;;;5080469;28;20885;-54
2024/01/08 07:22:10;;;;;;;9.97;8.20;;;-7.80;91.00;;;;;;5084001;28;20514;-54
2024/01/08 07:24:36;;;;;;;9.67;7.93;;;-7.80;91.30;;;;;;5074403;28;20473;-55
2024/01/08 07:27:03;;;;;;;12.20;8.87;;;-7.80;89.60;;;;;;5076316;28;20464;-53
2024/01/08 07:29:30;;;;;;;12.37;8.80;;;-7.80;89.00;;;;;;5080049;28;20457;-53
2024/01/08 07:31:58;;;;;;;9.23;8.33;;;-7.80;90.90;;;;;;5082676;28;20968;-54
2024/01/08 07:34:25;;;;;;;11.17;8.53;;;-7.80;88.20;;;;;;5080111;28;20472;-54
2024/01/08 07:36:53;;;;;;;11.13;8.27;;;-7.70;88.70;;;;;;5084007;28;21007;-54
2024/01/08 07:39:19;;;;;;;12.07;9.23;;;-7.70;90.60;;;;;;5086215;28;20456;-54
2024/01/08 07:41:47;;;;;;;8.70;7.80;;;-7.80;90.60;;;;;;5084843;28;20529;-54
2024/01/08 07:44:14;;;;;;;10.93;8.90;;;-7.80;89.40;;;;;;5084926;28;20483;-52
2024/01/08 07:46:42;;;;;;;11.47;9.43;;;-7.70;87.90;;;;;;5073490;28;20483;-53
2024/01/08 07:49:10;;;;;;;9.50;8.60;;;-7.70;89.00;;;;;;5082217;28;20905;-53
2024/01/08 07:51:36;;;;;;;9.73;8.77;;;-7.70;89.30;;;;;;5075086;28;20488;-53
2024/01/08 07:54:03;;;;;;;11.10;8.20;;;-7.70;87.50;;;;;;5080906;28;20460;-54
2024/01/08 07:56:30;;;;;;;12.80;9.60;;;-7.60;87.40;;;;;;5081278;28;20476;-54
2024/01/08 07:58:56;;;;;;;8.90;7.70;;;-7.70;88.60;;;;;;5080778;28;20522;-55
2024/01/08 08:01:23;;;;;;;8.50;7.50;;;-7.70;89.50;;;;;;5084805;28;20606;-53
2024/01/08 08:03:50;;;;;;;11.33;9.20;;;-7.60;85.60;;;;;;5079146;28;20972;-55
2024/01/08 08:06:18;;;;;;;9.93;8.67;;;-7.50;88.00;;;;;;5075722;28;20504;-53
2024/01/08 08:08:44;;;;;;;12.10;8.67;;;-7.60;85.00;;;;;;5084268;28;20529;-53
2024/01/08 08:11:11;;;;;;;11.40;9.10;;;-7.60;87.40;;;;;;5082428;28;20501;-53
2024/01/08 08:13:38;;;;;;;11.00;9.83;;;-7.50;87.40;;;;;;5083074;28;20518;-54
2024/01/08 08:16:05;;;;;;;10.67;8.67;;;-7.50;87.80;;;;;;5076280;28;20557;-54
2024/01/08 08:18:32;;;;;;;13.63;8.90;;;-7.50;91.50;;;;;;5080655;28;20932;-53
2024/01/08 08:20:59;;;;;;;10.17;7.87;;;-7.40;92.50;;;;;;5083607;28;20511;-56
2024/01/08 08:23:26;;;;;;;11.70;8.53;;;-7.40;90.60;;;;;;5082208;28;20456;-53
2024/01/08 08:25:53;;;;;;;10.73;8.80;;;-7.30;91.60;;;;;;5082464;28;20480;-54
2024/01/08 08:28:20;;;;;;;10.67;8.17;;;-7.30;96.80;;;;;;5080896;28;20453;-55
2024/01/08 08:30:47;;;;;;;9.50;8.17;;;-7.20;99.90;;;;;;5082170;28;20490;-52
2024/01/08 08:33:13;;;;;;;9.90;7.50;;;-7.00;99.90;;;;;;5084226;28;20468;-54
2024/01/08 08:35:40;;;;;;;9.23;7.60;;;-6.90;99.90;;;;;;5079804;28;20491;-55
2024/01/08 08:38:07;;;;;;;7.00;6.30;;;-6.60;99.90;;;;;;5080606;28;20513;-53
2024/01/08 08:40:35;;;;;;;10.10;8.10;;;-6.50;99.90;;;;;;5078925;28;20552;-53
2024/01/08 08:43:01;;;;;;;10.43;7.63;;;-6.30;99.90;;;;;;5085579;28;20460;-53
2024/01/08 08:45:28;;;;;;;10.67;8.10;;;-6.30;99.90;;;;;;5089774;28;20452;-53
2024/01/08 08:47:55;;;;;;;11.73;8.50;;;-6.20;99.90;;;;;;5089485;28;20463;-53
2024/01/08 08:50:21;;;;;;;9.40;7.50;;;-5.70;99.90;;;;;;5079515;28;20508;-53
2024/01/08 08:52:48;;;;;;;9.10;8.13;;;-5.20;99.90;;;;;;5085091;28;20468;-53
2024/01/08 08:55:15;;;;;;;9.13;7.33;;;-5.30;99.90;;;;;;5090595;28;20514;-53
2024/01/08 08:57:42;;;;;;;9.17;7.97;;;-5.30;99.90;;;;;;5090882;28;20466;-55
2024/01/08 09:00:10;;;;;;;9.63;7.80;;;-5.20;99.90;;;;;;5081608;28;20941;-53
2024/01/08 09:02:37;;;;;;;12.10;9.10;;;-5.40;99.90;;;;;;5087320;28;20453;-53
2024/01/08 09:05:05;;;;;;;10.20;7.10;;;-5.70;99.90;;;;;;5079341;28;21258;-54
2024/01/08 09:07:32;;;;;;;8.40;6.77;;;-5.50;99.90;;;;;;5080217;28;20498;-53
2024/01/08 09:09:58;;;;;;;12.10;7.57;;;-5.30;99.90;;;;;;5087440;28;20513;-54
2024/01/08 09:12:26;;;;;;;9.07;7.03;;;-5.40;99.90;;;;;;5087676;28;20502;-55
2024/01/08 09:14:55;;;;;;;8.80;7.60;;;-5.50;99.90;;;;;;5086229;28;20483;-53
2024/01/08 09:17:22;;;;;;;9.10;7.40;;;-5.30;99.90;;;;;;5089867;28;20440;-54
2024/01/08 09:19:49;;;;;;;10.30;7.37;;;-4.80;99.90;;;;;;5082609;28;20516;-53
2024/01/08 09:22:16;;;;;;;8.50;7.60;;;-4.10;99.90;;;;;;5082190;28;20455;-54
2024/01/08 09:24:42;;;;;;;10.30;7.00;;;-4.50;99.90;;;;;;5081105;28;20968;-54
2024/01/08 09:27:09;;;;;;;7.93;7.13;;;-4.60;99.90;;;;;;5082537;28;20880;-54
2024/01/08 09:29:35;;;;;;;7.90;6.53;;;-4.70;99.90;;;;;;5084601;28;20476;-54
2024/01/08 09:32:04;;;;;;;10.87;8.00;;;-4.50;99.90;;;;;;5087940;28;20954;-55
2024/01/08 09:34:30;;;;;;;8.90;6.87;;;-4.70;99.90;;;;;;5080292;28;20872;-54
2024/01/08 09:36:57;;;;;;;9.90;7.53;;;-4.90;99.90;;;;;;5082223;28;20449;-54
2024/01/08 09:39:23;;;;;;;6.93;6.27;;;-4.60;99.90;;;;;;5088692;28;20460;-54
2024/01/08 09:41:54;;;;;;;9.23;7.73;;;-4.70;99.90;;;;;;5080436;28;20460;-54
2024/01/08 09:44:21;;;;;;;14.73;6.83;;;-4.80;99.90;;;;;;5080347;28;20963;-54
2024/01/08 09:46:51;;;;;;;7.87;7.07;;;-4.90;99.90;;;;;;5084040;28;20526;-55
2024/01/08 09:49:20;;;;;;;7.53;6.83;;;-5.00;99.90;;;;;;5088662;28;20452;-53
2024/01/08 09:51:48;;;;;;;8.37;6.27;;;-3.90;99.90;;;;;;5083910;28;20547;-55
2024/01/08 09:54:18;;;;;;;9.37;7.30;;;-2.90;99.90;;;;;;5077488;28;20503;-53
2024/01/08 09:56:46;;;;;;;9.23;6.60;;;-2.70;99.90;;;;;;5083466;28;20517;-55
2024/01/08 09:59:12;;;;;;;9.30;7.03;;;-1.80;99.90;;;;;;5072798;28;21608;-53
2024/01/08 10:01:42;;;;;;;9.20;7.20;;;-0.30;99.90;;;;;;5084188;28;20528;-54
2024/01/08 10:04:09;;;;;;;8.27;6.80;;;-0.90;99.90;;;;;;5078857;28;20541;-54
2024/01/08 10:06:38;;;;;;;10.17;7.13;;;-0.70;99.90;;;;;;5079834;28;20471;-53
2024/01/08 10:09:05;;;;;;;7.47;6.73;;;-1.20;99.90;;;;;;5083574;28;20526;-54
2024/01/08 10:11:31;;;;;;;7.80;5.90;;;-1.50;99.90;;;;;;5079626;28;20521;-53
2024/01/08 10:13:58;;;;;;;8.10;6.83;;;-0.70;99.90;;;;;;5079595;28;20464;-54
2024/01/08 10:16:25;;;;;;;6.90;6.20;;;0.20;99.90;;;;;;5075937;28;20507;-53
2024/01/08 10:18:52;;;;;;;8.33;7.17;;;0.10;99.90;;;;;;5076295;28;20494;-53
2024/01/08 10:21:19;;;;;;;6.63;5.97;;;-1.40;99.90;;;;;;5082024;28;20514;-53
2024/01/08 10:23:47;;;;;;;8.77;6.10;;;-1.30;99.90;;;;;;5083816;28;20556;-53
2024/01/08 10:26:16;;;;;;;6.00;5.30;;;-1.50;99.90;;;;;;5081956;28;20484;-53
2024/01/08 10:28:43;;;;;;;10.40;5.80;;;-1.30;99.90;;;;;;5088762;28;20456;-51
2024/01/08 10:31:11;;;;;;;6.40;5.53;;;-1.20;99.90;;;;;;5080797;28;20452;-53
2024/01/08 10:33:37;;;;;;;7.83;6.47;;;-1.40;99.90;;;;;;5084762;28;20834;-53
2024/01/08 10:36:05;;;;;;;8.40;7.50;;;-2.20;99.90;;;;;;5078066;28;20532;-53
2024/01/08 10:38:33;;;;;;;7.50;6.10;;;-2.70;99.90;;;;;;5081915;28;20464;-54
2024/01/08 10:41:01;;;;;;;6.40;5.37;;;-3.40;99.90;;;;;;5086871;28;20463;-53
2024/01/08 10:43:29;;;;;;;6.50;5.90;;;-3.40;99.90;;;;;;5077883;28;21006;-54
2024/01/08 10:45:58;;;;;;;6.30;5.70;;;-3.20;99.90;;;;;;5079845;28;20480;-54
2024/01/08 10:48:30;;;;;;;8.83;6.37;;;-3.00;99.90;;;;;;5077568;28;20549;-54
2024/01/08 10:50:57;;;;;;;7.47;6.17;;;-3.30;99.90;;;;;;5081211;28;20463;-53
2024/01/08 10:53:30;;;;;;;5.70;5.20;;;-3.40;99.90;;;;;;5080999;28;20456;-54
2024/01/08 10:55:59;;;;;;;7.03;5.70;;;-3.10;99.90;;;;;;5082745;28;20531;-53
2024/01/08 10:58:34;;;;;;;5.03;4.63;;;-2.90;99.90;;;;;;5080255;28;20456;-54
2024/01/08 11:01:02;;;;;;;8.83;6.87;;;-3.30;99.90;;;;;;5086703;28;20456;-54
2024/01/08 11:03:29;;;;;;;8.17;5.27;;;-3.20;99.90;;;;;;5078491;28;20505;-53
2024/01/08 11:05:57;;;;;;;5.80;5.20;;;-2.90;99.90;;;;;;5081396;28;20525;-52
2024/01/08 11:08:25;;;;;;;6.23;5.40;;;-2.50;99.90;;;;;;5085745;28;20564;-53
2024/01/08 11:10:52;;;;;;;6.17;5.40;;;-3.10;99.90;;;;;;5082024;28;20522;-54
2024/01/08 11:13:18;;;;;;;4.77;4.40;;;-3.20;99.90;;;;;;5077639;28;20490;-53
2024/01/08 11:15:47;;;;;;;6.40;5.70;;;-3.10;99.90;;;;;;5081515;28;20977;-54
2024/01/08 11:18:25;;;;;;;6.17;5.00;;;-2.00;99.90;;;;;;5080546;28;20595;-54
2024/01/08 11:20:52;;;;;;;6.13;5.40;;;-2.20;99.90;;;;;;5081836;28;20496;-56
2024/01/08 11:23:38;;;;;;;16.33;9.97;;;-2.50;99.90;;;;;;5082591;28;20452;-53
2024/01/08 11:26:08;;;;;;;31.40;23.63;;;-2.70;99.90;;;;;;5079330;28;20481;-53
2024/01/08 11:28:37;;;;;;;7.93;6.37;;;-2.80;99.90;;;;;;5085273;28;20448;-53
2024/01/08 11:31:36;;;;;;;7.73;6.17;;;-3.00;99.90;;;;;;5082970;28;20464;-54
2024/01/08 11:34:41;;;;;;;8.97;5.63;;;-3.00;99.90;;;;;;5083315;28;20464;-53
2024/01/08 11:37:32;;;;;;;7.60;5.23;;;-3.00;99.90;;;;;;5081668;28;20533;-53
2024/01/08 11:40:00;;;;;;;6.80;6.07;;;-2.90;99.90;;;;;;5080883;28;20973;-53
2024/01/08 11:42:27;;;;;;;5.87;5.37;;;-2.40;99.90;;;;;;5084282;28;20456;-53
2024/01/08 11:44:54;;;;;;;8.83;5.33;;;-1.80;99.90;;;;;;5085719;28;20506;-55
2024/01/08 11:47:21;;;;;;;6.60;4.93;;;-1.80;99.90;;;;;;5087500;28;20492;-53
2024/01/08 11:49:50;;;;;;;7.03;5.10;;;-2.50;99.90;;;;;;5085264;28;20437;-52
2024/01/08 11:52:17;;;;;;;6.63;5.33;;;-2.90;99.90;;;;;;5078809;28;20437;-53
2024/01/08 11:54:48;;;;;;;5.00;4.60;;;-2.90;99.90;;;;;;5087490;28;20881;-53
2024/01/08 11:57:15;;;;;;;11.73;5.33;;;-2.90;99.90;;;;;;5084512;28;20882;-53
2024/01/08 11:59:42;;;;;;;5.30;4.87;;;-3.00;99.90;;;;;;5085190;28;20503;-53
2024/01/08 12:02:12;;;;;;;6.23;4.93;;;-2.90;99.90;;;;;;5080220;28;20444;-53
2024/01/08 12:04:40;;;;;;;6.87;5.57;;;-2.90;99.90;;;;;;5083189;28;21043;-53
2024/01/08 12:07:11;;;;;;;8.30;4.83;;;-3.00;99.90;;;;;;5087269;28;20549;-53
2024/01/08 12:09:37;;;;;;;5.10;4.70;;;-2.80;99.90;;;;;;5083679;28;20930;-55
2024/01/08 12:12:05;;;;;;;6.17;5.50;;;-2.80;99.90;;;;;;5085789;28;20436;-53
2024/01/08 12:14:32;;;;;;;6.10;4.50;;;-2.80;99.90;;;;;;5085011;28;20457;-52
2024/01/08 12:16:59;;;;;;;5.40;4.90;;;-2.50;99.90;;;;;;5089551;28;20561;-52
2024/01/08 12:19:36;;;;;;;7.63;4.73;;;-1.40;99.90;;;;;;5081943;28;20501;-55
2024/01/08 12:22:05;;;;;;;17.80;4.57;;;-0.60;99.90;;;;;;5079009;28;20434;-53
2024/01/08 12:24:32;;;;;;;8.47;5.90;;;0.60;99.90;;;;;;5081592;28;20437;-54
2024/01/08 12:27:02;;;;;;;4.93;4.53;;;0.10;99.90;;;;;;5084117;28;20444;-53
2024/01/08 12:29:29;;;;;;;8.00;5.33;;;0.30;99.90;;;;;;5084137;28;20448;-53
2024/01/08 12:31:57;;;;;;;5.93;4.90;;;0.10;99.90;;;;;;5079257;28;20435;-53
2024/01/08 12:34:26;;;;;;;6.73;4.93;;;-0.80;99.90;;;;;;5088521;28;20456;-53
2024/01/08 12:36:53;;;;;;;11.33;5.23;;;-1.20;99.90;;;;;;5078388;28;20545;-54
2024/01/08 12:39:23;;;;;;;4.87;4.23;;;-0.60;99.90;;;;;;5084420;28;20452;-54
2024/01/08 12:41:55;;;;;;;6.90;4.70;;;-0.30;99.90;;;;;;5079718;28;20437;-53
2024/01/08 12:44:22;;;;;;;6.17;5.10;;;0.20;99.90;;;;;;5083152;28;20540;-54